createdAt,value
2022-10-31T00:02:13.322Z,0.68
2022-10-31T00:04:39.648Z,0.68
2022-10-31T00:07:06.062Z,1.33
2022-10-31T00:09:32.349Z,0.73
2022-10-31T00:11:58.643Z,1.52
2022-10-31T00:14:24.922Z,0.80
2022-10-31T00:16:51.215Z,0.60
2022-10-31T00:19:17.557Z,0.80
2022-10-31T00:21:43.849Z,0.85
2022-10-31T00:24:11.278Z,0.85
2022-10-31T00:26:37.563Z,0.60
2022-10-31T00:29:03.904Z,0.82
2022-10-31T00:31:30.348Z,0.77
2022-10-31T00:33:56.701Z,0.70
2022-10-31T00:36:23.039Z,0.80
2022-10-31T00:38:49.557Z,0.55
2022-10-31T00:41:17.077Z,1.08
2022-10-31T00:43:44.034Z,0.70
2022-10-31T00:46:10.982Z,0.40
2022-10-31T00:48:37.349Z,1.17
2022-10-31T00:51:03.710Z,1.38
2022-10-31T00:53:29.977Z,1.10
2022-10-31T00:55:56.271Z,1.08
2022-10-31T00:58:22.632Z,0.93
2022-10-31T01:00:55.695Z,1.10
2022-10-31T01:03:23.226Z,0.98
2022-10-31T01:05:59.959Z,1.08
2022-10-31T01:08:26.393Z,1.05
2022-10-31T01:11:00.048Z,1.20
2022-10-31T01:13:26.352Z,1.17
2022-10-31T01:15:59.750Z,1.15
2022-10-31T01:18:26.188Z,1.25
2022-10-31T01:20:59.732Z,1.00
2022-10-31T01:23:26.051Z,0.80
2022-10-31T01:25:59.679Z,0.90
2022-10-31T01:31:01.007Z,0.63
2022-10-31T01:33:27.289Z,0.85
2022-10-31T01:35:53.567Z,0.82
2022-10-31T01:38:19.934Z,0.60
2022-10-31T01:40:46.339Z,1.20
2022-10-31T01:43:14.062Z,1.35
2022-10-31T01:45:41.225Z,1.10
2022-10-31T01:48:13.086Z,1.00
2022-10-31T01:50:40.061Z,1.00
2022-10-31T01:53:07.674Z,0.50
2022-10-31T01:55:35.606Z,0.80
2022-10-31T01:58:06.953Z,0.90
2022-10-31T02:00:33.345Z,1.33
2022-10-31T02:03:00.828Z,1.10
2022-10-31T02:05:29.633Z,1.40
2022-10-31T02:08:07.921Z,0.85
2022-10-31T02:10:34.772Z,0.55
2022-10-31T02:13:03.349Z,1.20
2022-10-31T02:15:30.974Z,1.20
2022-10-31T02:17:57.591Z,1.20
2022-10-31T02:20:26.103Z,0.52
2022-10-31T02:23:04.397Z,1.25
2022-10-31T02:25:36.568Z,2.00
2022-10-31T02:28:21.854Z,1.50
2022-10-31T02:30:56.985Z,1.40
2022-10-31T02:33:30.268Z,1.40
2022-10-31T02:35:59.682Z,1.40
2022-10-31T02:38:30.618Z,1.60
2022-10-31T02:41:12.274Z,1.50
2022-10-31T02:43:46.819Z,1.40
2022-10-31T02:46:20.902Z,1.48
2022-10-31T02:48:48.845Z,1.65
2022-10-31T02:51:16.248Z,1.38
2022-10-31T02:53:42.624Z,1.40
2022-10-31T02:56:16.510Z,1.38
2022-10-31T02:58:57.450Z,2.15
2022-10-31T03:01:26.659Z,1.50
2022-10-31T03:03:53.117Z,1.17
2022-10-31T03:06:34.841Z,0.93
2022-10-31T03:09:13.699Z,1.08
2022-10-31T03:11:45.161Z,1.00
2022-10-31T03:14:13.448Z,1.17
2022-10-31T03:16:47.542Z,1.20
2022-10-31T03:19:20.054Z,1.05
2022-10-31T03:21:53.548Z,1.60
2022-10-31T03:24:20.307Z,1.40
2022-10-31T03:26:48.641Z,0.80
2022-10-31T03:29:16.577Z,1.40
2022-10-31T03:31:48.634Z,2.15
2022-10-31T03:34:16.532Z,1.73
2022-10-31T03:36:44.114Z,1.90
2022-10-31T03:39:13.869Z,1.90
2022-10-31T03:41:43.714Z,2.00
2022-10-31T03:44:12.619Z,1.73
2022-10-31T03:46:39.987Z,2.10
2022-10-31T03:49:06.321Z,0.93
2022-10-31T03:51:36.958Z,1.40
2022-10-31T03:54:23.578Z,2.45
2022-10-31T03:57:16.016Z,1.73
2022-10-31T03:59:44.511Z,1.48
2022-10-31T04:02:18.112Z,1.63
2022-10-31T04:04:45.370Z,1.08
2022-10-31T04:07:12.784Z,1.77
2022-10-31T04:09:41.618Z,1.45
2022-10-31T04:12:09.683Z,1.80
2022-10-31T04:14:37.947Z,1.80
2022-10-31T04:17:06.252Z,1.98
2022-10-31T04:19:33.424Z,2.58
2022-10-31T04:21:59.734Z,1.83
2022-10-31T04:24:26.097Z,2.53
2022-10-31T04:26:52.394Z,1.98
2022-10-31T04:29:18.697Z,1.95
2022-10-31T04:31:45.007Z,1.17
2022-10-31T04:34:11.287Z,1.88
2022-10-31T04:36:37.671Z,1.17
2022-10-31T04:39:04.060Z,2.45
2022-10-31T04:41:30.347Z,1.95
2022-10-31T04:43:56.731Z,2.55
2022-10-31T04:46:23.047Z,1.50
2022-10-31T04:48:49.420Z,2.28
2022-10-31T04:51:15.714Z,2.53
2022-10-31T04:53:41.974Z,3.00
2022-10-31T04:56:08.259Z,2.45
2022-10-31T04:58:34.721Z,2.00
2022-10-31T05:01:01.087Z,2.08
2022-10-31T05:03:27.541Z,1.60
2022-10-31T05:05:53.820Z,1.27
2022-10-31T05:08:20.124Z,3.67
2022-10-31T05:10:46.430Z,2.05
2022-10-31T05:13:12.815Z,3.17
2022-10-31T05:15:39.160Z,3.25
2022-10-31T05:18:05.529Z,3.22
2022-10-31T05:20:31.923Z,3.90
2022-10-31T05:22:59.026Z,2.20
2022-10-31T05:25:27.253Z,2.28
2022-10-31T05:27:54.319Z,2.67
2022-10-31T05:30:22.560Z,2.85
2022-10-31T05:32:49.434Z,3.92
2022-10-31T05:35:17.753Z,2.00
2022-10-31T05:37:44.357Z,2.20
2022-10-31T05:40:11.916Z,1.70
2022-10-31T05:42:41.602Z,2.25
2022-10-31T05:45:08.967Z,2.00
2022-10-31T05:47:35.247Z,2.55
2022-10-31T05:50:01.521Z,2.30
2022-10-31T05:52:27.879Z,1.77
2022-10-31T05:54:54.173Z,2.80
2022-10-31T05:57:20.463Z,1.00
2022-10-31T05:59:48.941Z,1.60
2022-10-31T06:02:18.652Z,3.50
2022-10-31T06:04:45.049Z,3.25
2022-10-31T06:07:11.426Z,2.78
2022-10-31T06:09:37.724Z,2.58
2022-10-31T06:12:04.126Z,2.22
2022-10-31T06:14:30.414Z,2.00
2022-10-31T06:16:56.873Z,2.25
2022-10-31T06:19:23.316Z,1.55
2022-10-31T06:21:49.786Z,1.85
2022-10-31T06:24:16.067Z,1.80
2022-10-31T06:26:42.438Z,1.60
2022-10-31T06:29:08.730Z,2.25
2022-10-31T06:31:35.019Z,1.70
2022-10-31T06:34:01.385Z,1.65
2022-10-31T06:36:28.884Z,1.55
2022-10-31T06:38:55.244Z,2.30
2022-10-31T06:41:21.551Z,2.95
2022-10-31T06:43:48.249Z,1.40
2022-10-31T06:46:14.614Z,2.03
2022-10-31T06:48:43.701Z,1.75
2022-10-31T06:51:10.493Z,1.55
2022-10-31T06:53:36.852Z,1.80
2022-10-31T06:56:03.222Z,1.50
2022-10-31T06:58:29.548Z,1.77
2022-10-31T07:00:55.857Z,2.00
2022-10-31T07:03:22.290Z,1.80
2022-10-31T07:05:48.606Z,1.70
2022-10-31T07:08:15.297Z,2.10
2022-10-31T07:10:42.914Z,2.17
2022-10-31T07:13:13.646Z,1.83
2022-10-31T07:15:40.867Z,1.70
2022-10-31T07:18:08.561Z,1.35
2022-10-31T07:20:35.061Z,2.00
2022-10-31T07:23:02.006Z,2.80
2022-10-31T07:25:28.708Z,2.20
2022-10-31T07:27:55.051Z,2.00
2022-10-31T07:30:21.373Z,2.22
2022-10-31T07:32:51.492Z,1.95
2022-10-31T07:35:19.134Z,2.45
2022-10-31T07:37:45.555Z,2.45
2022-10-31T07:40:12.157Z,2.97
2022-10-31T07:42:39.193Z,2.85
2022-10-31T07:45:06.423Z,6.07
2022-10-31T07:47:39.419Z,6.38
2022-10-31T07:50:05.957Z,7.30
2022-10-31T07:52:32.251Z,6.47
2022-10-31T07:54:58.555Z,7.40
2022-10-31T07:57:25.340Z,5.65
2022-10-31T07:59:51.888Z,4.38
2022-10-31T08:02:18.186Z,7.85
2022-10-31T08:04:44.545Z,7.13
2022-10-31T08:07:10.857Z,4.95
2022-10-31T08:09:37.217Z,5.75
2022-10-31T08:12:03.700Z,5.43
2022-10-31T08:14:30.032Z,6.65
2022-10-31T08:16:56.769Z,6.13
2022-10-31T08:19:23.264Z,7.15
2022-10-31T08:21:53.197Z,7.60
2022-10-31T08:24:19.509Z,6.97
2022-10-31T08:26:45.806Z,5.88
2022-10-31T08:29:12.078Z,6.97
2022-10-31T08:31:41.848Z,6.30
2022-10-31T08:34:09.227Z,3.40
2022-10-31T08:36:35.560Z,8.20
2022-10-31T08:39:02.390Z,8.50
2022-10-31T08:41:28.745Z,6.05
2022-10-31T08:43:55.092Z,7.35
2022-10-31T08:46:21.542Z,7.88
2022-10-31T08:48:50.944Z,8.57
2022-10-31T08:51:17.251Z,9.10
2022-10-31T08:53:43.539Z,5.75
2022-10-31T08:56:09.829Z,7.78
2022-10-31T08:58:40.059Z,6.32
2022-10-31T09:01:06.892Z,8.30
2022-10-31T09:03:33.345Z,7.25
2022-10-31T09:06:00.563Z,7.88
2022-10-31T09:08:27.083Z,9.35
2022-10-31T09:10:56.614Z,4.95
2022-10-31T09:13:27.351Z,4.82
2022-10-31T09:15:54.424Z,5.85
2022-10-31T09:18:21.762Z,6.07
2022-10-31T09:20:49.054Z,7.47
2022-10-31T09:23:19.539Z,6.28
2022-10-31T09:25:50.445Z,3.65
2022-10-31T09:28:19.394Z,7.78
2022-10-31T09:30:47.091Z,4.43
2022-10-31T09:33:13.794Z,4.78
2022-10-31T09:35:40.888Z,9.52
2022-10-31T09:38:09.513Z,7.68
2022-10-31T09:40:40.085Z,9.77
2022-10-31T09:43:14.145Z,10.35
2022-10-31T09:45:52.472Z,8.25
2022-10-31T09:48:27.662Z,9.15
2022-10-31T09:51:02.028Z,7.90
2022-10-31T09:53:28.361Z,9.95
2022-10-31T09:55:55.137Z,9.60
2022-10-31T09:58:24.182Z,9.20
2022-10-31T10:00:50.594Z,8.45
2022-10-31T10:03:22.878Z,8.30
2022-10-31T10:05:55.029Z,7.13
2022-10-31T10:08:22.287Z,7.63
2022-10-31T10:10:51.159Z,8.57
2022-10-31T10:13:32.869Z,8.30
2022-10-31T10:16:17.964Z,7.40
2022-10-31T10:18:54.053Z,8.15
2022-10-31T10:21:23.638Z,6.95
2022-10-31T10:24:06.166Z,8.57
2022-10-31T10:26:37.207Z,8.05
2022-10-31T10:29:18.931Z,8.60
2022-10-31T10:31:46.972Z,6.88
2022-10-31T10:34:16.082Z,9.13
2022-10-31T10:36:45.333Z,9.15
2022-10-31T10:39:17.683Z,9.45
2022-10-31T10:41:46.569Z,7.93
2022-10-31T10:44:13.011Z,8.13
2022-10-31T10:47:10.354Z,8.73
2022-10-31T10:49:50.678Z,7.00
2022-10-31T10:55:17.563Z,7.78
2022-10-31T10:57:54.889Z,6.20
2022-10-31T11:00:25.512Z,6.63
2022-10-31T11:02:52.266Z,3.13
2022-10-31T11:05:39.127Z,4.90
2022-10-31T11:08:06.055Z,8.77
2022-10-31T11:10:34.210Z,6.18
2022-10-31T11:13:03.567Z,3.78
2022-10-31T11:15:31.881Z,9.02
2022-10-31T11:17:58.563Z,9.93
2022-10-31T11:20:29.864Z,9.60
2022-10-31T11:23:02.228Z,7.95
2022-10-31T11:25:28.619Z,8.27
2022-10-31T11:28:02.139Z,10.32
2022-10-31T11:30:28.937Z,6.95
2022-10-31T11:32:55.306Z,11.02
2022-10-31T11:35:23.175Z,6.20
2022-10-31T11:37:51.458Z,10.82
2022-10-31T11:40:21.931Z,10.50
2022-10-31T11:42:48.748Z,10.77
2022-10-31T11:45:34.948Z,7.97
2022-10-31T11:48:02.615Z,3.60
2022-10-31T11:50:33.859Z,8.90
2022-10-31T11:53:00.845Z,7.95
2022-10-31T11:55:40.712Z,6.40
2022-10-31T11:58:20.704Z,4.88
2022-10-31T12:00:50.206Z,10.20
2022-10-31T12:03:25.398Z,10.88
2022-10-31T12:05:57.768Z,10.65
2022-10-31T12:08:26.386Z,9.80
2022-10-31T12:11:03.226Z,10.98
2022-10-31T12:13:39.000Z,12.73
2022-10-31T12:21:09.884Z,9.98
2022-10-31T12:23:53.383Z,11.90
2022-10-31T12:26:32.057Z,12.48
2022-10-31T12:29:12.345Z,11.57
2022-10-31T12:31:38.645Z,12.02
2022-10-31T12:34:23.443Z,12.45
2022-10-31T12:37:00.961Z,5.43
2022-10-31T12:39:30.290Z,15.50
2022-10-31T12:42:14.733Z,15.10
2022-10-31T12:44:50.056Z,9.25
2022-10-31T12:47:28.732Z,14.68
2022-10-31T12:50:00.994Z,14.35
2022-10-31T12:52:39.243Z,14.85
2022-10-31T12:55:20.474Z,14.23
2022-10-31T12:57:48.599Z,14.27
2022-10-31T13:00:17.955Z,15.23
2022-10-31T13:02:53.227Z,13.45
2022-10-31T13:05:19.522Z,13.50
2022-10-31T13:07:53.329Z,12.95
2022-10-31T13:10:46.064Z,12.63
2022-10-31T13:13:18.852Z,14.45
2022-10-31T13:15:50.535Z,15.52
2022-10-31T13:18:26.203Z,11.52
2022-10-31T13:20:55.515Z,15.18
2022-10-31T13:23:48.509Z,10.02
2022-10-31T13:28:37.456Z,14.95
2022-10-31T13:31:03.899Z,12.80
2022-10-31T13:33:32.250Z,15.23
2022-10-31T13:36:13.994Z,14.60
2022-10-31T13:38:43.095Z,11.35
2022-10-31T13:41:18.272Z,16.10
2022-10-31T13:43:56.580Z,17.23
2022-10-31T13:46:23.850Z,14.68
2022-10-31T13:48:50.134Z,10.43
2022-10-31T13:51:24.742Z,16.13
2022-10-31T13:53:51.017Z,17.60
2022-10-31T13:56:43.496Z,13.30
2022-10-31T13:59:09.778Z,18.67
2022-10-31T14:01:36.662Z,18.73
2022-10-31T14:04:19.234Z,18.02
2022-10-31T14:06:48.538Z,19.70
2022-10-31T14:09:40.870Z,13.15
2022-10-31T14:12:09.181Z,16.83
2022-10-31T14:14:55.766Z,15.40
2022-10-31T14:17:24.493Z,19.40
2022-10-31T14:20:11.059Z,18.38
2022-10-31T14:22:42.387Z,17.63
2022-10-31T14:25:27.897Z,17.25
2022-10-31T14:27:54.212Z,18.55
2022-10-31T14:30:23.412Z,17.52
2022-10-31T14:32:54.104Z,15.85
2022-10-31T14:35:21.599Z,16.90
2022-10-31T14:38:12.295Z,17.33
2022-10-31T14:41:10.767Z,18.90
2022-10-31T14:43:45.610Z,16.85
2022-10-31T14:46:22.823Z,19.17
2022-10-31T14:48:55.157Z,18.50
2022-10-31T14:51:22.893Z,19.00
2022-10-31T14:53:50.509Z,21.08
2022-10-31T14:56:28.494Z,19.20
2022-10-31T14:58:56.457Z,18.92
2022-10-31T15:01:28.501Z,19.63
2022-10-31T15:04:24.650Z,20.92
2022-10-31T15:06:46.765Z,20.77
2022-10-31T15:09:23.761Z,19.58
2022-10-31T15:11:50.069Z,21.10
2022-10-31T15:14:29.744Z,21.00
2022-10-31T15:16:59.987Z,21.00
2022-10-31T15:19:31.229Z,20.20
2022-10-31T15:21:58.126Z,19.48
2022-10-31T15:24:26.463Z,20.38
2022-10-31T15:26:53.595Z,18.23
2022-10-31T15:29:25.401Z,19.52
2022-10-31T15:31:59.053Z,19.65
2022-10-31T15:34:33.852Z,19.77
2022-10-31T15:37:00.229Z,20.10
2022-10-31T15:39:26.531Z,20.60
2022-10-31T15:41:54.761Z,18.95
2022-10-31T15:44:38.069Z,20.38
2022-10-31T15:47:05.428Z,18.65
2022-10-31T15:49:36.783Z,20.73
2022-10-31T15:52:23.330Z,18.92
2022-10-31T15:54:51.793Z,18.45
2022-10-31T15:57:18.305Z,18.67
2022-10-31T15:59:47.016Z,17.88
2022-10-31T16:02:14.227Z,18.95
2022-10-31T16:05:13.440Z,17.60
2022-10-31T16:07:48.867Z,17.35
2022-10-31T16:10:26.126Z,19.50
2022-10-31T16:12:53.061Z,17.88
2022-10-31T16:15:20.954Z,18.20
2022-10-31T16:17:51.533Z,18.35
2022-10-31T16:20:26.501Z,17.70
2022-10-31T16:22:54.289Z,18.58
2022-10-31T16:25:27.212Z,17.98
2022-10-31T16:27:54.823Z,19.85
2022-10-31T16:30:30.079Z,19.42
2022-10-31T16:32:59.193Z,19.10
2022-10-31T16:35:39.261Z,19.33
2022-10-31T16:38:05.978Z,17.98
2022-10-31T16:40:32.781Z,18.05
2022-10-31T16:43:00.342Z,18.50
2022-10-31T16:45:30.288Z,13.25
2022-10-31T16:48:03.577Z,16.27
2022-10-31T16:50:30.095Z,14.77
2022-10-31T16:55:45.422Z,15.32
2022-10-31T16:58:16.110Z,16.52
2022-10-31T17:00:42.674Z,15.18
2022-10-31T17:03:09.621Z,17.02
2022-10-31T17:05:36.818Z,11.80
2022-10-31T17:08:03.377Z,14.73
2022-10-31T17:10:30.007Z,10.65
2022-10-31T17:12:58.001Z,16.75
2022-10-31T17:15:25.782Z,16.30
2022-10-31T17:17:52.466Z,12.65
2022-10-31T17:20:26.560Z,13.77
2022-10-31T17:22:53.258Z,15.05
2022-10-31T17:25:21.008Z,6.82
2022-10-31T17:27:47.568Z,13.00
2022-10-31T17:30:14.244Z,11.10
2022-10-31T17:32:41.333Z,11.07
2022-10-31T17:35:08.917Z,11.93
2022-10-31T17:37:35.574Z,8.02
2022-10-31T17:40:01.872Z,12.68
2022-10-31T17:42:28.207Z,10.52
2022-10-31T17:44:54.642Z,10.98
2022-10-31T17:47:20.957Z,10.30
2022-10-31T17:49:47.299Z,11.48
2022-10-31T17:52:13.599Z,11.93
2022-10-31T17:54:39.877Z,11.80
2022-10-31T17:57:06.166Z,11.05
2022-10-31T17:59:32.531Z,9.57
2022-10-31T18:02:00.527Z,8.25
2022-10-31T18:04:26.982Z,9.65
2022-10-31T18:06:53.304Z,11.57
2022-10-31T18:09:19.944Z,9.80
2022-10-31T18:11:46.300Z,11.75
2022-10-31T18:14:12.701Z,7.03
2022-10-31T18:16:39.032Z,8.98
2022-10-31T18:19:05.975Z,10.52
2022-10-31T18:21:32.363Z,10.93
2022-10-31T18:23:59.550Z,10.23
2022-10-31T18:26:26.884Z,11.40
2022-10-31T18:28:53.410Z,9.98
2022-10-31T18:31:20.176Z,11.18
2022-10-31T18:33:46.805Z,10.75
2022-10-31T18:36:13.406Z,9.05
2022-10-31T18:38:40.846Z,9.90
2022-10-31T18:41:08.003Z,11.75
2022-10-31T18:43:34.640Z,10.30
2022-10-31T18:46:04.779Z,10.77
2022-10-31T18:48:31.503Z,11.23
2022-10-31T18:50:58.494Z,10.68
2022-10-31T18:53:25.042Z,11.00
2022-10-31T18:55:51.370Z,10.80
2022-10-31T18:58:17.832Z,4.43
2022-10-31T19:00:45.790Z,8.60
2022-10-31T19:03:12.327Z,11.50
2022-10-31T19:05:38.718Z,10.10
2022-10-31T19:08:05.052Z,10.38
2022-10-31T19:10:31.401Z,9.88
2022-10-31T19:12:57.847Z,10.43
2022-10-31T19:15:24.218Z,10.85
2022-10-31T19:17:50.668Z,10.57
2022-10-31T19:20:17.261Z,10.40
2022-10-31T19:22:43.682Z,11.05
2022-10-31T19:25:11.043Z,10.82
2022-10-31T19:27:37.693Z,10.13
2022-10-31T19:30:04.500Z,8.90
2022-10-31T19:32:30.851Z,8.95
2022-10-31T19:34:57.249Z,9.65
2022-10-31T19:37:23.567Z,9.45
2022-10-31T19:39:49.946Z,8.60
2022-10-31T19:42:16.391Z,6.50
2022-10-31T19:44:42.696Z,7.13
2022-10-31T19:47:09.112Z,5.03
2022-10-31T19:49:35.396Z,8.13
2022-10-31T19:52:01.713Z,8.38
2022-10-31T19:54:28.070Z,6.97
2022-10-31T19:56:54.364Z,5.93
2022-10-31T19:59:20.663Z,10.27
2022-10-31T20:01:47.147Z,9.82
2022-10-31T20:04:13.457Z,9.00
2022-10-31T20:06:40.852Z,7.80
2022-10-31T20:09:08.792Z,8.27
2022-10-31T20:11:36.118Z,5.38
2022-10-31T20:14:02.785Z,6.25
2022-10-31T20:16:29.586Z,7.57
2022-10-31T20:18:56.102Z,7.57
2022-10-31T20:21:24.718Z,8.05
2022-10-31T20:24:01.510Z,5.07
2022-10-31T20:26:28.516Z,7.57
2022-10-31T20:28:55.860Z,8.00
2022-10-31T20:31:23.308Z,7.95
2022-10-31T20:33:49.673Z,7.95
2022-10-31T20:36:19.556Z,6.15
2022-10-31T20:38:45.950Z,6.45
2022-10-31T20:41:12.308Z,8.02
2022-10-31T20:43:39.023Z,6.32
2022-10-31T20:46:06.757Z,7.45
2022-10-31T20:48:33.178Z,7.05
2022-10-31T20:51:00.461Z,6.53
2022-10-31T20:53:27.145Z,6.85
2022-10-31T20:56:06.966Z,6.13
2022-10-31T20:58:34.405Z,5.75
2022-10-31T21:01:00.943Z,7.20
2022-10-31T21:03:27.619Z,6.35
2022-10-31T21:05:55.353Z,4.30
2022-10-31T21:08:21.954Z,6.43
2022-10-31T21:10:48.425Z,5.03
2022-10-31T21:13:15.506Z,5.88
2022-10-31T21:15:41.902Z,4.70
2022-10-31T21:18:08.359Z,5.43
2022-10-31T21:20:35.086Z,5.18
2022-10-31T21:23:01.680Z,6.13
2022-10-31T21:25:28.570Z,5.10
2022-10-31T21:27:54.860Z,5.65
2022-10-31T21:30:21.201Z,7.60
2022-10-31T21:32:47.539Z,3.75
2022-10-31T21:35:13.890Z,7.00
2022-10-31T21:37:40.173Z,5.85
2022-10-31T21:40:06.790Z,4.00
2022-10-31T21:42:33.157Z,6.13
2022-10-31T21:44:59.543Z,5.93
2022-10-31T21:47:25.935Z,4.75
2022-10-31T21:49:52.366Z,5.90
2022-10-31T21:52:18.652Z,5.25
2022-10-31T21:54:44.934Z,5.72
2022-10-31T21:57:11.329Z,5.60
2022-10-31T21:59:37.659Z,4.75
2022-10-31T22:02:04.123Z,4.20
2022-10-31T22:04:30.496Z,4.22
2022-10-31T22:06:56.809Z,3.80
2022-10-31T22:09:23.905Z,4.05
2022-10-31T22:11:50.335Z,3.80
2022-10-31T22:14:16.661Z,4.75
2022-10-31T22:16:43.055Z,3.80
2022-10-31T22:19:10.836Z,4.95
2022-10-31T22:21:39.330Z,4.10
2022-10-31T22:24:07.655Z,4.97
2022-10-31T22:26:34.429Z,4.55
2022-10-31T22:29:02.341Z,4.95
2022-10-31T22:31:29.631Z,4.38
2022-10-31T22:33:56.619Z,4.53
2022-10-31T22:36:24.311Z,4.25
2022-10-31T22:38:50.702Z,3.97
2022-10-31T22:41:18.343Z,4.32
2022-10-31T22:43:44.919Z,4.32
2022-10-31T22:46:15.366Z,4.40
2022-10-31T22:48:43.592Z,4.45
2022-10-31T22:51:10.120Z,3.70
2022-10-31T22:53:37.118Z,4.38
2022-10-31T22:56:03.926Z,4.13
2022-10-31T22:58:30.828Z,2.90
2022-10-31T23:00:57.315Z,4.40
2022-10-31T23:03:24.062Z,3.60
2022-10-31T23:05:57.476Z,4.53
2022-10-31T23:08:23.998Z,4.30
2022-10-31T23:10:50.464Z,5.32
2022-10-31T23:13:35.334Z,4.80
2022-10-31T23:16:01.688Z,4.47
2022-10-31T23:18:48.502Z,4.22
2022-10-31T23:21:32.655Z,4.45
2022-10-31T23:23:59.154Z,4.70
2022-10-31T23:26:45.600Z,4.82
2022-10-31T23:29:11.991Z,3.70
2022-10-31T23:31:38.492Z,4.30
2022-10-31T23:34:04.787Z,4.32
2022-10-31T23:36:31.179Z,4.00
2022-10-31T23:38:57.507Z,5.32
2022-10-31T23:41:23.862Z,4.43
2022-10-31T23:43:50.154Z,4.35
2022-10-31T23:46:16.736Z,4.57
2022-10-31T23:48:49.489Z,4.57
2022-10-31T23:51:15.787Z,4.80
2022-10-31T23:53:45.544Z,4.43
2022-10-31T23:56:12.748Z,3.88
2022-10-31T23:58:39.417Z,4.32
